Time;durP1;ratioP1;P1;durP2;ratioP2;P2;SDS_P1;SDS_P2;PMS_P1;PMS_P2;Temp;Humidity;BMP_temperature;BMP_pressure;BME280_temperature;BME280_humidity;BME280_pressure;Samples;Min_cycle;Max_cycle;Signal;HPM_P1;HPM_P2
2021/08/10 00:01:32;;;;;;;4.37;2.90;;;16.40;99.90;;;;;;5047745;28;20238;-49
2021/08/10 00:03:58;;;;;;;4.77;3.13;;;16.40;99.90;;;;;;5047156;28;20205;-48
2021/08/10 00:06:25;;;;;;;3.63;2.80;;;16.20;99.90;;;;;;5046341;28;20240;-49
2021/08/10 00:08:52;;;;;;;6.50;3.40;;;16.10;99.90;;;;;;5047495;28;20309;-48
2021/08/10 00:11:19;;;;;;;4.10;2.80;;;16.20;99.90;;;;;;5047545;28;20230;-47
2021/08/10 00:13:46;;;;;;;6.63;3.10;;;16.10;99.90;;;;;;5046719;28;20238;-48
2021/08/10 00:16:13;;;;;;;3.73;3.07;;;16.20;99.90;;;;;;5047423;28;20239;-47
2021/08/10 00:18:39;;;;;;;3.93;2.90;;;16.10;99.90;;;;;;5046749;28;20202;-47
2021/08/10 00:21:06;;;;;;;8.70;3.57;;;16.10;99.90;;;;;;5046983;28;20329;-48
2021/08/10 00:23:33;;;;;;;3.60;2.80;;;16.20;99.90;;;;;;5045624;28;20270;-47
2021/08/10 00:26:00;;;;;;;3.47;2.60;;;16.10;99.90;;;;;;5046672;28;20298;-50
2021/08/10 00:28:26;;;;;;;3.83;2.93;;;16.00;99.90;;;;;;5046731;28;20348;-48
2021/08/10 00:30:53;;;;;;;4.27;3.17;;;16.00;99.90;;;;;;5046490;28;20315;-47
2021/08/10 00:33:20;;;;;;;5.80;3.37;;;15.90;99.90;;;;;;5046167;28;20223;-48
2021/08/10 00:35:47;;;;;;;5.50;3.40;;;16.00;99.90;;;;;;5046305;28;20522;-47
2021/08/10 00:38:14;;;;;;;5.77;3.30;;;16.00;99.90;;;;;;5047652;28;20295;-47
2021/08/10 00:40:41;;;;;;;3.97;3.03;;;16.00;99.90;;;;;;5044836;28;20245;-46
2021/08/10 00:43:30;;;;;;;5.67;3.80;;;16.00;99.90;;;;;;5045139;28;20376;-46
2021/08/10 00:45:57;;;;;;;4.20;2.90;;;16.00;99.90;;;;;;5047228;28;20626;-47
2021/08/10 00:48:24;;;;;;;5.10;3.30;;;16.00;99.90;;;;;;5046150;28;20226;-47
2021/08/10 00:50:51;;;;;;;4.27;3.07;;;16.00;99.90;;;;;;5045722;28;20237;-47
2021/08/10 00:53:17;;;;;;;6.43;3.23;;;16.00;99.90;;;;;;5045467;28;20237;-47
2021/08/10 00:55:44;;;;;;;4.97;3.63;;;15.90;99.90;;;;;;5044792;28;20213;-49
2021/08/10 00:58:14;;;;;;;5.17;3.17;;;15.80;99.90;;;;;;5045991;28;20243;-48
2021/08/10 01:00:41;;;;;;;7.20;3.37;;;15.90;99.90;;;;;;5046604;28;20721;-48
2021/08/10 01:03:08;;;;;;;6.20;4.10;;;15.90;99.90;;;;;;5045689;28;20249;-48
2021/08/10 01:05:35;;;;;;;5.77;3.10;;;15.80;99.90;;;;;;5045389;28;20242;-47
2021/08/10 01:08:19;;;;;;;6.07;3.57;;;15.80;99.90;;;;;;5053613;28;20270;-47
2021/08/10 01:11:01;;;;;;;7.23;3.77;;;15.90;99.90;;;;;;5046355;28;20262;-47
2021/08/10 01:14:00;;;;;;;5.27;3.33;;;15.80;99.90;;;;;;5045388;28;20620;-48
2021/08/10 01:17:03;;;;;;;7.07;3.23;;;16.00;99.90;;;;;;5044319;28;20262;-47
2021/08/10 01:19:58;;;;;;;5.87;3.17;;;15.90;99.90;;;;;;5045723;28;20670;-47
2021/08/10 01:22:27;;;;;;;5.47;3.23;;;16.10;99.90;;;;;;5045722;28;20825;-48
2021/08/10 01:25:37;;;;;;;5.93;3.50;;;16.10;99.90;;;;;;5045561;28;20204;-48
2021/08/10 01:28:34;;;;;;;5.67;3.70;;;16.00;99.90;;;;;;5046011;28;20292;-48
2021/08/10 01:31:07;;;;;;;6.03;3.90;;;16.10;99.90;;;;;;5046214;28;20699;-48
2021/08/10 01:33:37;;;;;;;7.13;3.33;;;16.20;99.90;;;;;;5046196;28;20208;-48
2021/08/10 01:36:05;;;;;;;5.00;3.67;;;16.00;99.90;;;;;;5045740;28;20695;-48
2021/08/10 01:38:34;;;;;;;4.73;3.30;;;16.00;99.90;;;;;;5046672;28;20221;-48
2021/08/10 01:41:01;;;;;;;4.50;3.37;;;16.00;99.90;;;;;;5044925;28;20296;-48
2021/08/10 01:43:30;;;;;;;5.63;3.03;;;16.00;99.90;;;;;;5046187;28;20287;-48
2021/08/10 01:45:58;;;;;;;6.77;3.47;;;16.00;99.90;;;;;;5045805;28;20248;-48
2021/08/10 01:48:27;;;;;;;4.67;3.17;;;15.90;99.90;;;;;;5045926;28;20226;-47
2021/08/10 01:50:55;;;;;;;4.37;2.70;;;16.00;99.90;;;;;;5045726;28;20240;-48
2021/08/10 01:53:23;;;;;;;5.67;4.00;;;16.10;99.90;;;;;;5044460;28;20237;-47
2021/08/10 01:55:52;;;;;;;4.33;3.43;;;15.90;99.90;;;;;;5045123;28;20201;-48
2021/08/10 01:58:20;;;;;;;5.90;3.60;;;16.00;99.90;;;;;;5045540;28;20302;-48
2021/08/10 02:00:47;;;;;;;3.97;3.40;;;16.00;99.90;;;;;;5046619;28;20836;-48
2021/08/10 02:03:16;;;;;;;5.90;3.40;;;15.90;99.90;;;;;;5045048;28;20213;-48
2021/08/10 02:05:45;;;;;;;5.10;3.80;;;15.90;99.90;;;;;;5045144;28;20210;-48
2021/08/10 02:08:14;;;;;;;4.90;3.20;;;15.90;99.90;;;;;;5045590;28;20291;-47
2021/08/10 02:10:42;;;;;;;5.67;3.50;;;15.90;99.90;;;;;;5045311;28;20320;-48
2021/08/10 02:13:10;;;;;;;5.53;3.60;;;15.90;99.90;;;;;;5046471;28;20284;-50
2021/08/10 02:15:40;;;;;;;5.70;3.63;;;15.80;99.90;;;;;;5044920;28;20242;-48
2021/08/10 02:18:08;;;;;;;7.83;3.40;;;15.80;99.90;;;;;;5045557;28;20289;-48
2021/08/10 02:20:37;;;;;;;3.93;3.17;;;15.70;99.90;;;;;;5045011;28;20198;-48
2021/08/10 02:23:06;;;;;;;7.03;3.57;;;15.70;99.90;;;;;;5044728;28;20683;-48
2021/08/10 02:25:33;;;;;;;10.00;3.57;;;15.70;99.90;;;;;;5045684;28;20228;-48
2021/08/10 02:28:02;;;;;;;5.20;3.20;;;15.70;99.90;;;;;;5046732;28;20287;-48
2021/08/10 02:30:34;;;;;;;6.30;3.33;;;15.70;99.90;;;;;;5049126;28;20323;-48
2021/08/10 02:33:06;;;;;;;7.13;3.57;;;15.70;99.90;;;;;;5049341;28;20226;-48
2021/08/10 02:35:34;;;;;;;5.53;3.50;;;15.60;99.90;;;;;;5048834;28;20274;-48
2021/08/10 02:38:05;;;;;;;10.33;3.77;;;15.50;99.90;;;;;;5049529;28;20254;-47
2021/08/10 02:40:34;;;;;;;6.30;3.50;;;15.60;99.90;;;;;;5047588;28;20964;-48
2021/08/10 02:43:02;;;;;;;4.30;3.10;;;15.60;99.90;;;;;;5049539;28;20269;-48
2021/08/10 02:45:35;;;;;;;4.93;3.60;;;15.60;99.90;;;;;;5048724;28;20281;-48
2021/08/10 02:48:02;;;;;;;4.07;3.20;;;15.60;99.90;;;;;;5048299;28;20246;-48
2021/08/10 02:50:30;;;;;;;7.40;3.30;;;15.60;99.90;;;;;;5040298;28;20219;-48
2021/08/10 02:52:58;;;;;;;5.50;3.30;;;15.70;99.90;;;;;;5049297;28;20291;-48
2021/08/10 02:55:27;;;;;;;4.80;3.00;;;15.70;99.90;;;;;;5047341;28;20718;-48
2021/08/10 02:58:10;;;;;;;4.17;2.63;;;15.60;99.90;;;;;;5048011;28;20295;-48
2021/08/10 03:00:42;;;;;;;5.17;2.83;;;15.70;99.90;;;;;;5047714;28;20241;-48
2021/08/10 03:03:16;;;;;;;3.57;2.97;;;15.60;99.90;;;;;;5046321;28;20249;-48
2021/08/10 03:05:45;;;;;;;4.57;3.03;;;15.60;99.90;;;;;;5046132;28;20215;-48
2021/08/10 03:08:20;;;;;;;3.77;3.13;;;15.70;99.90;;;;;;5048828;28;20583;-49
2021/08/10 03:10:49;;;;;;;4.43;2.87;;;15.60;99.90;;;;;;5048863;28;20241;-49
2021/08/10 03:13:18;;;;;;;7.03;2.70;;;15.70;99.90;;;;;;5047824;28;20293;-48
2021/08/10 03:15:46;;;;;;;4.87;3.20;;;15.80;99.90;;;;;;5048648;28;20519;-48
2021/08/10 03:18:15;;;;;;;5.73;2.63;;;15.70;99.90;;;;;;5047307;28;20212;-48
2021/08/10 03:20:44;;;;;;;3.17;2.80;;;15.80;99.90;;;;;;5047118;28;20604;-48
2021/08/10 03:23:16;;;;;;;5.43;2.80;;;15.80;99.90;;;;;;5048060;28;20629;-49
2021/08/10 03:25:44;;;;;;;4.37;2.67;;;15.80;99.90;;;;;;5048444;28;20676;-48
2021/08/10 03:28:14;;;;;;;6.57;2.60;;;15.70;99.90;;;;;;5048038;28;20331;-49
2021/08/10 03:30:42;;;;;;;5.00;2.33;;;15.60;99.90;;;;;;5047472;28;20248;-48
2021/08/10 03:33:09;;;;;;;5.00;2.90;;;15.70;99.90;;;;;;5047181;28;20221;-49
2021/08/10 03:35:38;;;;;;;4.40;2.57;;;15.50;99.90;;;;;;5045944;28;20678;-48
2021/08/10 03:38:07;;;;;;;4.60;2.80;;;15.50;99.90;;;;;;5046923;28;20487;-49
2021/08/10 03:40:34;;;;;;;7.97;2.80;;;15.50;99.90;;;;;;5045632;28;20248;-49
2021/08/10 03:43:01;;;;;;;8.63;2.73;;;15.50;99.90;;;;;;5044274;28;20640;-49
2021/08/10 03:45:29;;;;;;;5.70;2.37;;;15.40;99.90;;;;;;5047573;28;20622;-48
2021/08/10 03:47:57;;;;;;;5.80;2.53;;;15.40;99.90;;;;;;5047323;28;20216;-48
2021/08/10 03:50:25;;;;;;;6.30;2.90;;;15.50;99.90;;;;;;5047051;28;20215;-48
2021/08/10 03:52:52;;;;;;;3.93;2.70;;;15.40;99.90;;;;;;5046944;28;20299;-48
2021/08/10 03:55:19;;;;;;;4.60;2.40;;;15.30;99.90;;;;;;5045953;28;20657;-48
2021/08/10 03:57:49;;;;;;;6.47;2.27;;;15.40;99.90;;;;;;5046534;28;20203;-49
2021/08/10 04:00:16;;;;;;;4.17;2.20;;;15.60;99.90;;;;;;5046611;28;20239;-48
2021/08/10 04:02:43;;;;;;;3.33;2.30;;;15.50;99.90;;;;;;5046218;28;20210;-48
2021/08/10 04:05:13;;;;;;;3.63;2.53;;;15.50;99.90;;;;;;5063216;28;20221;-48
2021/08/10 04:07:41;;;;;;;3.17;2.20;;;15.50;99.90;;;;;;5046733;28;20730;-48
2021/08/10 04:10:09;;;;;;;3.00;2.17;;;15.50;99.90;;;;;;5047291;28;20221;-48
2021/08/10 04:12:36;;;;;;;2.93;2.27;;;15.70;99.90;;;;;;5047301;28;20571;-49
2021/08/10 04:15:07;;;;;;;2.40;2.13;;;15.70;99.90;;;;;;5046644;28;20247;-49
2021/08/10 04:17:37;;;;;;;4.73;2.23;;;15.50;99.90;;;;;;5047203;28;20491;-48
2021/08/10 04:20:05;;;;;;;4.63;2.37;;;15.40;99.90;;;;;;5046665;28;20208;-48
2021/08/10 04:22:32;;;;;;;5.03;2.33;;;15.40;99.90;;;;;;5047003;28;20277;-48
2021/08/10 04:24:59;;;;;;;5.10;2.57;;;15.40;99.90;;;;;;5046442;28;20612;-49
2021/08/10 04:27:26;;;;;;;3.27;2.43;;;15.40;99.90;;;;;;5046391;28;20203;-48
2021/08/10 04:29:53;;;;;;;3.30;2.37;;;15.40;99.90;;;;;;5046724;28;20278;-48
2021/08/10 04:32:19;;;;;;;5.03;2.13;;;15.30;99.90;;;;;;5044988;28;20264;-48
2021/08/10 04:34:46;;;;;;;3.83;1.93;;;15.30;99.90;;;;;;5046729;28;20293;-48
2021/08/10 04:37:13;;;;;;;4.07;2.13;;;15.30;99.90;;;;;;5046306;28;20508;-49
2021/08/10 04:39:40;;;;;;;2.50;2.00;;;15.20;99.90;;;;;;5045383;28;20239;-49
2021/08/10 04:42:07;;;;;;;2.40;1.77;;;15.30;99.90;;;;;;5046013;28;20237;-48
2021/08/10 04:44:34;;;;;;;3.43;2.23;;;15.40;99.90;;;;;;5046147;28;20235;-49
2021/08/10 04:47:00;;;;;;;5.37;2.30;;;15.40;99.90;;;;;;5047548;28;20249;-48
2021/08/10 04:49:27;;;;;;;5.57;2.10;;;15.40;99.90;;;;;;5045570;28;20299;-49
2021/08/10 04:51:54;;;;;;;4.07;2.30;;;15.40;99.90;;;;;;5046239;28;20307;-48
2021/08/10 04:54:20;;;;;;;5.10;1.93;;;15.50;99.90;;;;;;5044651;28;20244;-48
2021/08/10 04:56:47;;;;;;;4.40;2.20;;;15.60;99.90;;;;;;5045819;28;20480;-48
2021/08/10 04:59:14;;;;;;;3.13;1.87;;;15.50;99.90;;;;;;5045453;28;20451;-48
2021/08/10 05:01:44;;;;;;;3.23;2.27;;;15.60;99.90;;;;;;5045499;28;20287;-48
2021/08/10 05:04:11;;;;;;;5.00;2.50;;;15.80;99.90;;;;;;5044826;28;20204;-48
2021/08/10 05:06:38;;;;;;;4.13;2.63;;;15.60;99.90;;;;;;5046490;28;20205;-48
2021/08/10 05:09:06;;;;;;;3.43;2.23;;;15.70;99.90;;;;;;5045433;28;20313;-48
2021/08/10 05:11:34;;;;;;;3.77;2.17;;;15.70;99.90;;;;;;5046008;28;20278;-48
2021/08/10 05:14:01;;;;;;;3.37;2.40;;;15.70;99.90;;;;;;5044975;28;20492;-48
2021/08/10 05:16:28;;;;;;;4.00;2.40;;;15.80;99.90;;;;;;5047122;28;20339;-48
2021/08/10 05:18:55;;;;;;;4.33;2.40;;;15.80;99.90;;;;;;5045492;28;20200;-48
2021/08/10 05:21:21;;;;;;;4.87;2.17;;;15.80;99.90;;;;;;5047248;28;20325;-49
2021/08/10 05:23:48;;;;;;;5.20;2.47;;;15.90;99.90;;;;;;5045817;28;20770;-48
2021/08/10 05:26:16;;;;;;;2.70;1.83;;;15.90;99.90;;;;;;5047245;28;20304;-48
2021/08/10 05:28:43;;;;;;;4.53;2.30;;;15.90;99.90;;;;;;5045608;28;20296;-48
2021/08/10 05:31:10;;;;;;;5.40;2.67;;;15.90;99.90;;;;;;5046037;28;20311;-48
2021/08/10 05:33:37;;;;;;;5.80;3.00;;;15.80;99.90;;;;;;5044847;28;20310;-48
2021/08/10 05:36:04;;;;;;;4.07;2.67;;;15.80;99.90;;;;;;5045486;28;20239;-48
2021/08/10 05:38:31;;;;;;;2.90;2.37;;;15.80;99.90;;;;;;5044961;28;20305;-49
2021/08/10 05:40:58;;;;;;;3.57;2.47;;;15.70;99.90;;;;;;5044429;28;20308;-48
2021/08/10 05:43:25;;;;;;;6.37;2.30;;;15.60;99.90;;;;;;5041937;28;20232;-48
2021/08/10 05:45:52;;;;;;;5.40;3.17;;;15.70;99.90;;;;;;5045635;28;20225;-48
2021/08/10 05:48:18;;;;;;;5.63;2.77;;;15.60;99.90;;;;;;5044443;28;20307;-48
2021/08/10 05:50:46;;;;;;;4.93;2.47;;;15.70;99.90;;;;;;5037010;28;20274;-49
2021/08/10 05:53:12;;;;;;;4.47;2.80;;;15.80;99.90;;;;;;5044388;28;20263;-48
2021/08/10 05:55:39;;;;;;;4.40;3.03;;;15.80;99.90;;;;;;5044485;28;20210;-48
2021/08/10 05:58:06;;;;;;;4.17;2.43;;;15.80;99.90;;;;;;5044745;28;20621;-49
2021/08/10 06:00:33;;;;;;;4.97;2.70;;;16.00;99.90;;;;;;5041144;28;20632;-49
2021/08/10 06:03:00;;;;;;;4.43;2.53;;;16.00;99.90;;;;;;5044614;28;20577;-49
2021/08/10 06:05:27;;;;;;;3.80;2.60;;;16.00;99.90;;;;;;5048494;28;20202;-49
2021/08/10 06:07:54;;;;;;;3.53;2.30;;;16.00;99.90;;;;;;5048920;28;20204;-49
2021/08/10 06:10:20;;;;;;;4.73;2.90;;;16.00;99.90;;;;;;5048102;28;20351;-48
2021/08/10 06:12:47;;;;;;;3.70;2.80;;;16.00;99.90;;;;;;5049883;28;20639;-48
2021/08/10 06:15:15;;;;;;;4.80;2.70;;;16.00;99.90;;;;;;5048894;28;20511;-48
2021/08/10 06:17:42;;;;;;;4.73;2.93;;;16.00;99.90;;;;;;5048573;28;20358;-49
2021/08/10 06:20:09;;;;;;;4.70;3.00;;;16.00;99.90;;;;;;5047858;28;20224;-49
2021/08/10 06:22:36;;;;;;;4.43;3.23;;;16.00;99.90;;;;;;5048862;28;20232;-48
2021/08/10 06:25:03;;;;;;;4.07;2.87;;;15.90;99.90;;;;;;5040858;28;20295;-48
2021/08/10 06:27:30;;;;;;;4.17;3.10;;;16.00;99.90;;;;;;5048740;28;20611;-48
2021/08/10 06:29:57;;;;;;;5.97;3.50;;;16.00;99.90;;;;;;5047940;28;20696;-48
2021/08/10 06:32:24;;;;;;;4.27;3.20;;;15.90;99.90;;;;;;5049472;28;20727;-48
2021/08/10 06:34:50;;;;;;;6.20;3.27;;;16.00;99.90;;;;;;5047592;28;20292;-48
2021/08/10 06:37:17;;;;;;;5.63;3.20;;;16.10;99.90;;;;;;5048335;28;20305;-48
2021/08/10 06:39:44;;;;;;;4.60;3.03;;;16.00;99.90;;;;;;5047442;28;20646;-48
2021/08/10 06:42:11;;;;;;;5.67;3.47;;;15.90;99.90;;;;;;5048218;28;20236;-49
2021/08/10 06:44:37;;;;;;;3.30;2.80;;;15.90;99.90;;;;;;5046830;28;20772;-48
2021/08/10 06:47:04;;;;;;;6.53;2.90;;;15.90;99.90;;;;;;5049085;28;20253;-48
2021/08/10 06:49:31;;;;;;;6.90;3.40;;;15.90;99.90;;;;;;5047524;28;20206;-47
2021/08/10 06:51:58;;;;;;;4.57;3.30;;;16.00;99.90;;;;;;5049270;28;20660;-48
2021/08/10 06:54:24;;;;;;;8.13;3.60;;;16.00;99.90;;;;;;5046927;28;20234;-47
2021/08/10 06:56:52;;;;;;;4.93;3.43;;;16.10;99.90;;;;;;5048521;28;20743;-48
2021/08/10 06:59:18;;;;;;;7.57;3.30;;;16.00;99.90;;;;;;5048042;28;20292;-48
2021/08/10 07:01:46;;;;;;;7.47;4.00;;;16.00;99.90;;;;;;5048910;28;20201;-48
2021/08/10 07:04:13;;;;;;;4.83;3.23;;;16.10;99.90;;;;;;5047647;28;20249;-48
2021/08/10 07:06:40;;;;;;;7.83;3.50;;;16.10;99.90;;;;;;5048249;28;20311;-48
2021/08/10 07:09:06;;;;;;;6.10;3.23;;;16.00;99.90;;;;;;5047568;28;20668;-48
2021/08/10 07:11:34;;;;;;;7.80;3.67;;;16.10;99.90;;;;;;5048179;28;20218;-48
2021/08/10 07:14:01;;;;;;;5.10;3.47;;;16.00;99.90;;;;;;5046437;28;20208;-48
2021/08/10 07:16:29;;;;;;;8.53;3.53;;;16.10;99.90;;;;;;5047887;28;20216;-48
2021/08/10 07:18:56;;;;;;;6.67;3.50;;;16.10;99.90;;;;;;5046789;28;20205;-48
2021/08/10 07:21:24;;;;;;;6.30;3.73;;;16.10;99.90;;;;;;5048094;28;20280;-48
2021/08/10 07:23:51;;;;;;;5.03;2.90;;;16.10;99.90;;;;;;5048775;28;20788;-48
2021/08/10 07:26:17;;;;;;;8.87;3.43;;;16.20;99.90;;;;;;5048849;28;20398;-48
2021/08/10 07:28:44;;;;;;;6.37;3.60;;;16.70;99.90;;;;;;5047900;28;20591;-48
2021/08/10 07:31:11;;;;;;;6.83;3.67;;;16.80;99.90;;;;;;5049033;28;20694;-48
2021/08/10 07:33:38;;;;;;;6.97;4.00;;;16.80;99.90;;;;;;5047911;28;20660;-48
2021/08/10 07:36:05;;;;;;;5.93;4.00;;;16.60;99.90;;;;;;5048081;28;20208;-48
2021/08/10 07:38:31;;;;;;;5.90;4.10;;;16.70;99.90;;;;;;5047353;28;20281;-49
2021/08/10 07:40:59;;;;;;;7.13;4.73;;;16.80;99.90;;;;;;5047424;28;20205;-48
2021/08/10 07:43:26;;;;;;;6.10;4.10;;;16.90;99.90;;;;;;5046359;28;20200;-49
2021/08/10 07:45:54;;;;;;;8.57;3.87;;;17.00;99.90;;;;;;5047461;28;20302;-48
2021/08/10 07:48:21;;;;;;;4.87;3.57;;;17.00;99.90;;;;;;5046734;28;20204;-49
2021/08/10 07:50:48;;;;;;;8.73;4.10;;;17.20;99.90;;;;;;5046495;28;20762;-48
2021/08/10 07:53:19;;;;;;;8.20;4.03;;;17.20;99.90;;;;;;5045915;28;20605;-49
2021/08/10 07:55:48;;;;;;;5.47;3.87;;;17.40;99.90;;;;;;5046949;28;20656;-49
2021/08/10 07:58:14;;;;;;;6.47;3.77;;;17.50;99.90;;;;;;5045833;28;20237;-48
2021/08/10 08:00:41;;;;;;;9.10;3.83;;;17.50;99.90;;;;;;5046467;28;20324;-48
2021/08/10 08:03:10;;;;;;;8.57;3.50;;;17.50;99.90;;;;;;5047170;28;20670;-48
2021/08/10 08:05:38;;;;;;;7.33;3.73;;;17.40;99.90;;;;;;5045724;28;20255;-48
2021/08/10 08:08:05;;;;;;;5.47;3.40;;;17.40;99.90;;;;;;5038679;28;20260;-48
2021/08/10 08:10:32;;;;;;;7.50;3.10;;;17.70;99.90;;;;;;5046151;28;20271;-49
2021/08/10 08:13:20;;;;;;;6.47;3.07;;;18.00;99.90;;;;;;5047312;28;20618;-48
2021/08/10 08:15:47;;;;;;;6.37;2.97;;;18.40;99.90;;;;;;5045046;28;20860;-49
2021/08/10 08:18:14;;;;;;;4.47;2.63;;;18.40;99.90;;;;;;5046077;28;20205;-49
2021/08/10 08:20:41;;;;;;;7.80;2.57;;;18.20;99.90;;;;;;5046079;28;20247;-48
2021/08/10 08:23:08;;;;;;;4.67;2.90;;;18.20;99.90;;;;;;5046011;28;20329;-49
2021/08/10 08:25:35;;;;;;;5.13;3.00;;;18.10;99.90;;;;;;5046540;28;20621;-49
2021/08/10 08:28:08;;;;;;;6.13;2.57;;;18.20;99.90;;;;;;5046571;28;20241;-48
2021/08/10 08:30:38;;;;;;;5.00;2.40;;;18.20;99.90;;;;;;5046565;28;20324;-48
2021/08/10 08:33:07;;;;;;;4.83;2.80;;;18.10;99.90;;;;;;5044742;28;20606;-49
2021/08/10 08:35:34;;;;;;;6.67;2.60;;;18.20;99.90;;;;;;5045395;28;20230;-48
2021/08/10 08:38:01;;;;;;;5.27;2.73;;;18.10;99.90;;;;;;5047191;28;20206;-49
2021/08/10 08:40:28;;;;;;;5.13;2.80;;;18.10;99.90;;;;;;5045082;28;20234;-48
2021/08/10 08:42:55;;;;;;;6.83;3.33;;;18.20;99.90;;;;;;5046308;28;20240;-48
2021/08/10 08:45:21;;;;;;;5.93;3.70;;;18.30;99.90;;;;;;5045940;28;20279;-48
2021/08/10 08:47:51;;;;;;;5.63;3.30;;;18.50;99.90;;;;;;5046158;28;20738;-49
2021/08/10 08:50:20;;;;;;;4.47;2.80;;;18.70;99.90;;;;;;5045139;28;20227;-49
2021/08/10 08:52:53;;;;;;;5.20;3.70;;;19.10;99.90;;;;;;5044887;28;20246;-48
2021/08/10 08:55:21;;;;;;;6.40;3.47;;;19.30;99.90;;;;;;5045258;28;20625;-48
2021/08/10 08:57:48;;;;;;;5.97;3.37;;;19.10;99.90;;;;;;5044971;28;20281;-48
2021/08/10 09:00:17;;;;;;;4.70;3.63;;;19.00;99.90;;;;;;5046499;28;20211;-48
2021/08/10 09:02:44;;;;;;;7.50;4.07;;;19.00;99.90;;;;;;5045514;28;20246;-48
2021/08/10 09:05:14;;;;;;;5.97;4.03;;;19.30;99.90;;;;;;5046213;28;20579;-48
2021/08/10 09:07:41;;;;;;;5.27;3.67;;;19.40;99.90;;;;;;5045646;28;20287;-48
2021/08/10 09:10:10;;;;;;;7.33;3.57;;;19.40;99.90;;;;;;5045803;28;20290;-48
2021/08/10 09:12:48;;;;;;;6.30;3.50;;;19.20;99.90;;;;;;5044827;28;20207;-48
2021/08/10 09:15:33;;;;;;;3.93;3.27;;;19.00;99.90;;;;;;5044716;28;20275;-49
2021/08/10 09:18:11;;;;;;;6.53;4.03;;;19.00;99.90;;;;;;5046086;28;20306;-49
2021/08/10 09:20:39;;;;;;;4.90;3.67;;;18.90;99.90;;;;;;5044310;28;20381;-48
2021/08/10 09:23:06;;;;;;;4.90;2.80;;;18.70;99.90;;;;;;5045740;28;20665;-49
2021/08/10 09:25:34;;;;;;;3.13;2.73;;;18.70;99.90;;;;;;5045529;28;20215;-49
2021/08/10 09:28:09;;;;;;;5.87;2.80;;;18.60;99.90;;;;;;5046778;28;20238;-48
2021/08/10 09:30:36;;;;;;;3.33;2.67;;;18.60;99.90;;;;;;5045543;28;20282;-49
2021/08/10 09:33:04;;;;;;;5.20;2.70;;;18.60;99.90;;;;;;5045214;28;20389;-48
2021/08/10 09:35:34;;;;;;;3.03;2.80;;;18.90;99.90;;;;;;5044973;28;20691;-49
2021/08/10 09:38:09;;;;;;;3.50;2.77;;;19.10;99.90;;;;;;5045259;28;20242;-48
2021/08/10 09:40:47;;;;;;;3.47;2.93;;;19.40;99.90;;;;;;5048433;28;20314;-49
2021/08/10 09:43:25;;;;;;;4.63;3.10;;;19.70;99.90;;;;;;5048130;28;20246;-48
2021/08/10 09:46:07;;;;;;;3.40;3.00;;;19.60;99.90;;;;;;5050090;28;20557;-49
2021/08/10 09:48:34;;;;;;;4.53;2.97;;;19.50;99.90;;;;;;5049196;28;20660;-48
2021/08/10 09:51:13;;;;;;;3.27;2.97;;;19.40;99.90;;;;;;5049253;28;20248;-49
2021/08/10 09:53:42;;;;;;;3.83;2.87;;;19.50;99.90;;;;;;5047948;28;20245;-48
2021/08/10 09:56:09;;;;;;;5.53;2.83;;;19.80;99.90;;;;;;5048481;28;20662;-49
2021/08/10 09:58:56;;;;;;;3.50;2.87;;;19.90;99.90;;;;;;5048969;28;20273;-48
2021/08/10 10:01:34;;;;;;;5.57;3.73;;;19.80;99.90;;;;;;5048915;28;20647;-49
2021/08/10 10:04:09;;;;;;;4.50;3.57;;;19.50;99.90;;;;;;5047973;28;20795;-48
2021/08/10 10:06:36;;;;;;;5.23;3.90;;;19.60;99.90;;;;;;5049324;28;20239;-48
2021/08/10 10:09:04;;;;;;;5.80;3.57;;;19.40;99.90;;;;;;5048974;28;20213;-49
2021/08/10 10:11:37;;;;;;;6.37;4.07;;;19.20;99.90;;;;;;5048796;28;20219;-49
2021/08/10 10:14:04;;;;;;;10.97;5.17;;;19.20;99.90;;;;;;5048161;28;20258;-48
2021/08/10 10:16:32;;;;;;;5.00;3.90;;;19.10;99.90;;;;;;5049589;28;20242;-48
2021/08/10 10:19:10;;;;;;;4.40;3.57;;;19.20;99.90;;;;;;5047369;28;20356;-48
2021/08/10 10:21:40;;;;;;;8.37;4.17;;;19.50;99.90;;;;;;5049477;28;20318;-48
2021/08/10 10:24:08;;;;;;;5.07;3.90;;;19.70;99.90;;;;;;5048911;28;20250;-48
2021/08/10 10:26:38;;;;;;;5.17;4.07;;;20.00;99.90;;;;;;5049308;28;20767;-48
2021/08/10 10:29:06;;;;;;;7.30;4.00;;;20.20;99.90;;;;;;5048450;28;20607;-50
2021/08/10 10:31:33;;;;;;;5.30;3.97;;;19.90;99.90;;;;;;5048024;28;20575;-49
2021/08/10 10:34:01;;;;;;;6.03;3.77;;;20.00;99.90;;;;;;5047881;28;20792;-49
2021/08/10 10:36:28;;;;;;;6.80;3.23;;;20.30;99.90;;;;;;5048125;28;20550;-50
2021/08/10 10:38:58;;;;;;;4.53;3.20;;;20.30;99.90;;;;;;5048216;28;20285;-48
2021/08/10 10:41:29;;;;;;;3.30;2.90;;;20.40;99.90;;;;;;5047848;28;20247;-48
2021/08/10 10:43:55;;;;;;;6.57;3.80;;;20.70;99.90;;;;;;5048328;28;20294;-49
2021/08/10 10:46:28;;;;;;;6.00;3.23;;;20.50;99.10;;;;;;5048398;28;20262;-49
2021/08/10 10:48:56;;;;;;;5.00;3.40;;;20.60;1.00;;;;;;5048145;28;20693;-50
2021/08/10 10:51:29;;;;;;;3.87;3.03;;;20.70;1.00;;;;;;5046975;28;20223;-49
2021/08/10 10:54:27;;;;;;;6.57;2.90;;;20.80;1.00;;;;;;5048094;28;20294;-49
2021/08/10 10:56:59;;;;;;;7.37;3.23;;;20.30;1.00;;;;;;5048267;28;20291;-49
2021/08/10 10:59:30;;;;;;;6.80;3.60;;;20.40;1.00;;;;;;5046804;28;20733;-49
2021/08/10 11:02:13;;;;;;;3.40;3.10;;;20.30;1.00;;;;;;5048382;28;20290;-50
2021/08/10 11:05:05;;;;;;;5.90;3.23;;;20.30;1.00;;;;;;5047588;28;20203;-49
2021/08/10 11:07:45;;;;;;;4.13;3.27;;;20.40;1.00;;;;;;5046962;28;20241;-50
2021/08/10 11:10:34;;;;;;;4.70;3.77;;;20.50;1.00;;;;;;5049019;28;20238;-49
2021/08/10 11:13:04;;;;;;;3.63;3.33;;;20.70;1.00;;;;;;5047883;28;20207;-49
2021/08/10 11:15:46;;;;;;;3.80;3.40;;;20.90;1.00;;;;;;5046697;28;20234;-49
2021/08/10 11:18:13;;;;;;;3.70;3.13;;;21.30;1.00;;;;;;5048905;28;20286;-49
2021/08/10 11:20:44;;;;;;;4.20;3.20;;;21.30;99.90;;;;;;5046821;28;20208;-49
2021/08/10 11:23:26;;;;;;;4.87;2.70;;;21.20;1.00;;;;;;5047416;28;20271;-49
2021/08/10 11:25:59;;;;;;;2.80;2.60;;;21.40;99.90;;;;;;5047792;28;20242;-49
2021/08/10 11:28:33;;;;;;;7.53;2.87;;;21.30;99.90;;;;;;5048104;28;20268;-49
2021/08/10 11:31:00;;;;;;;3.93;2.70;;;21.50;1.00;;;;;;5047801;28;20227;-49
2021/08/10 11:33:31;;;;;;;4.47;2.73;;;21.40;1.00;;;;;;5047087;28;20206;-49
2021/08/10 11:36:10;;;;;;;3.30;2.70;;;21.00;1.00;;;;;;5047517;28;20240;-50
2021/08/10 11:38:51;;;;;;;6.23;3.13;;;21.40;1.00;;;;;;5047763;28;20258;-49
2021/08/10 11:41:29;;;;;;;4.90;3.50;;;21.80;99.90;;;;;;5044176;28;20200;-49
2021/08/10 11:44:01;;;;;;;5.13;2.90;;;22.20;1.00;;;;;;5047830;28;20208;-49
2021/08/10 11:46:34;;;;;;;4.73;3.07;;;21.90;1.00;;;;;;5045641;28;20263;-49
2021/08/10 11:49:06;;;;;;;3.90;3.00;;;22.20;1.00;;;;;;5046657;28;20289;-49
2021/08/10 11:51:39;;;;;;;5.97;2.67;;;22.50;1.00;;;;;;5046308;28;20310;-49
2021/08/10 11:54:18;;;;;;;6.40;3.03;;;22.20;1.00;;;;;;5045837;28;20196;-49
2021/08/10 11:57:01;;;;;;;6.13;3.47;;;22.50;99.90;;;;;;5046333;28;20203;-49
2021/08/10 11:59:27;;;;;;;7.10;2.97;;;22.60;1.00;;;;;;5045559;28;20641;-49
2021/08/10 12:01:58;;;;;;;5.83;2.97;;;22.50;1.00;;;;;;5046017;28;20239;-49
2021/08/10 12:04:29;;;;;;;3.37;3.07;;;22.30;1.00;;;;;;5044902;28;20824;-48
2021/08/10 12:06:57;;;;;;;4.30;3.17;;;22.30;99.90;;;;;;5046198;28;20248;-49
2021/08/10 12:09:35;;;;;;;3.63;2.63;;;22.90;1.00;;;;;;5046137;28;20238;-49
2021/08/10 12:12:04;;;;;;;3.77;2.83;;;23.20;1.00;;;;;;5045518;28;20236;-49
2021/08/10 12:14:33;;;;;;;8.30;3.00;;;23.10;99.90;;;;;;5045588;28;20686;-50
2021/08/10 12:17:02;;;;;;;4.40;2.70;;;23.40;1.00;;;;;;5045342;28;20211;-49
2021/08/10 12:19:34;;;;;;;4.87;2.73;;;23.60;99.90;;;;;;5046746;28;20251;-49
2021/08/10 12:22:23;;;;;;;3.37;2.80;;;23.50;1.00;;;;;;5046475;28;20247;-49
2021/08/10 12:24:52;;;;;;;3.90;3.07;;;22.70;99.90;;;;;;5045808;28;20212;-49
2021/08/10 12:27:26;;;;;;;4.20;3.37;;;22.40;1.00;;;;;;5047082;28;20250;-50
2021/08/10 12:29:53;;;;;;;4.23;3.23;;;22.40;99.90;;;;;;5047685;28;20374;-50
2021/08/10 12:32:24;;;;;;;6.20;3.00;;;22.40;99.90;;;;;;5046988;28;20231;-49
2021/08/10 12:34:51;;;;;;;3.17;2.87;;;22.20;85.20;;;;;;5046498;28;20235;-49
2021/08/10 12:37:31;;;;;;;6.17;3.23;;;22.10;20.30;;;;;;5046890;28;20302;-50
2021/08/10 12:39:59;;;;;;;6.10;2.47;;;22.10;92.30;;;;;;5045666;28;20233;-48
2021/08/10 12:42:26;;;;;;;3.23;2.93;;;21.90;99.90;;;;;;5047123;28;20717;-48
2021/08/10 12:44:55;;;;;;;4.10;2.73;;;22.30;99.90;;;;;;5045895;28;20270;-48
2021/08/10 12:47:36;;;;;;;3.20;2.30;;;22.20;1.00;;;;;;5046819;28;20287;-50
2021/08/10 12:50:25;;;;;;;4.70;2.70;;;22.00;1.00;;;;;;5045932;28;20221;-48
2021/08/10 12:52:52;;;;;;;3.90;2.57;;;22.00;1.00;;;;;;5044374;28;20220;-48
2021/08/10 12:55:20;;;;;;;2.97;2.40;;;22.10;99.90;;;;;;5045530;28;20324;-48
2021/08/10 12:57:47;;;;;;;3.40;2.50;;;22.20;99.90;;;;;;5044726;28;20202;-48
2021/08/10 13:00:19;;;;;;;3.80;2.70;;;22.30;1.00;;;;;;5045794;28;20239;-48
2021/08/10 13:02:47;;;;;;;3.03;2.20;;;22.70;1.00;;;;;;5045506;28;20281;-48